createdAt,value
2022-11-22T00:00:53.929Z,29.10
2022-11-22T00:01:53.788Z,26.00
2022-11-22T00:02:54.906Z,26.80
2022-11-22T00:03:51.873Z,28.00
2022-11-22T00:05:19.006Z,26.40
2022-11-22T00:05:53.142Z,26.60
2022-11-22T00:06:57.510Z,24.50
2022-11-22T00:07:57.014Z,24.30
2022-11-22T00:08:52.232Z,27.40
2022-11-22T00:09:52.098Z,24.80
2022-11-22T00:10:51.428Z,26.00
2022-11-22T00:11:53.595Z,26.50
2022-11-22T00:12:53.624Z,25.50
2022-11-22T00:13:52.268Z,25.40
2022-11-22T00:20:51.026Z,27.70
2022-11-22T00:21:31.215Z,26.80
2022-11-22T00:22:44.212Z,27.80
2022-11-22T00:23:56.556Z,28.60
2022-11-22T00:24:51.606Z,29.10
2022-11-22T00:25:37.932Z,29.40
2022-11-22T00:26:33.075Z,28.30
2022-11-22T00:27:28.042Z,26.80
2022-11-22T00:28:30.578Z,30.30
2022-11-22T00:29:29.278Z,28.20
2022-11-22T00:30:27.717Z,29.70
2022-11-22T00:31:27.108Z,28.90
2022-11-22T00:32:27.879Z,29.60
2022-11-22T00:33:27.743Z,28.60
2022-11-22T00:34:27.863Z,30.20
2022-11-22T00:35:28.605Z,28.00
2022-11-22T00:36:28.897Z,31.20
2022-11-22T00:37:34.600Z,32.20
2022-11-22T00:38:29.280Z,30.80
2022-11-22T00:39:29.307Z,29.90
2022-11-22T00:40:48.279Z,29.70
2022-11-22T00:41:27.700Z,29.10
2022-11-22T00:42:27.613Z,30.60
2022-11-22T00:43:27.776Z,32.90
2022-11-22T00:44:27.155Z,30.50
2022-11-22T00:45:26.775Z,31.30
2022-11-22T00:46:26.767Z,29.90
2022-11-22T00:47:30.278Z,28.00
2022-11-22T00:48:27.403Z,29.00
2022-11-22T00:49:28.421Z,28.30
2022-11-22T00:50:27.352Z,28.60
2022-11-22T00:51:28.878Z,28.90
2022-11-22T00:52:28.179Z,31.10
2022-11-22T00:53:27.826Z,30.80
2022-11-22T00:54:27.538Z,29.80
2022-11-22T00:55:27.554Z,31.30
2022-11-22T00:56:27.888Z,29.80
2022-11-22T00:57:27.227Z,29.50
2022-11-22T00:58:27.370Z,30.60
2022-11-22T00:59:27.068Z,31.70
2022-11-22T01:00:27.605Z,30.00
2022-11-22T01:01:27.255Z,29.40
2022-11-22T01:02:26.914Z,30.20
2022-11-22T01:03:26.488Z,30.10
2022-11-22T01:04:26.825Z,31.50
2022-11-22T01:05:27.149Z,31.90
2022-11-22T01:06:27.281Z,32.20
2022-11-22T01:07:27.052Z,29.70
2022-11-22T01:08:26.731Z,33.10
2022-11-22T01:09:48.162Z,31.10
2022-11-22T01:10:27.363Z,31.80
2022-11-22T01:11:26.509Z,32.70
2022-11-22T01:12:27.405Z,32.90
2022-11-22T01:13:26.722Z,31.10
2022-11-22T01:14:26.705Z,32.40
2022-11-22T01:15:26.502Z,32.10
2022-11-22T01:16:26.402Z,34.80
2022-11-22T01:17:26.821Z,33.70
2022-11-22T01:18:28.008Z,34.30
2022-11-22T01:19:27.019Z,34.50
2022-11-22T01:20:26.430Z,35.30
2022-11-22T01:21:27.470Z,35.20
2022-11-22T01:22:28.522Z,35.60
2022-11-22T01:23:26.806Z,32.70
2022-11-22T01:24:31.991Z,33.50
2022-11-22T01:25:27.389Z,33.60
2022-11-22T01:26:26.693Z,33.00
2022-11-22T01:27:26.506Z,33.40
2022-11-22T01:28:27.712Z,34.60
2022-11-22T01:29:27.129Z,35.80
2022-11-22T01:30:26.592Z,33.90
2022-11-22T01:31:30.585Z,33.40
2022-11-22T01:32:26.634Z,35.30
2022-11-22T01:33:27.913Z,35.10
2022-11-22T01:34:26.270Z,34.10
2022-11-22T01:35:27.491Z,37.00
2022-11-22T01:36:27.826Z,36.40
2022-11-22T01:37:26.468Z,35.80
2022-11-22T01:38:26.420Z,33.40
2022-11-22T01:39:27.699Z,33.60
2022-11-22T01:40:26.943Z,36.00
2022-11-22T01:41:26.526Z,36.10
2022-11-22T01:42:27.018Z,36.10
2022-11-22T01:43:25.901Z,36.00
2022-11-22T01:44:25.857Z,37.10
2022-11-22T01:45:27.708Z,35.90
2022-11-22T01:46:25.694Z,37.90
2022-11-22T01:47:25.963Z,39.90
2022-11-22T01:48:26.151Z,37.30
2022-11-22T01:49:26.853Z,34.70
2022-11-22T01:50:25.674Z,39.20
2022-11-22T01:51:25.850Z,35.30
2022-11-22T01:52:25.563Z,36.20
2022-11-22T01:53:25.879Z,34.20
2022-11-22T01:54:25.548Z,35.80
2022-11-22T01:55:25.803Z,36.60
2022-11-22T01:56:25.775Z,36.90
2022-11-22T01:57:25.939Z,36.40
2022-11-22T01:58:25.621Z,38.30
2022-11-22T01:59:25.773Z,36.60
2022-11-22T02:00:25.522Z,34.50
2022-11-22T02:01:25.659Z,36.60
2022-11-22T02:02:25.986Z,36.20
2022-11-22T02:03:25.489Z,35.10
2022-11-22T02:04:25.492Z,35.30
2022-11-22T02:05:25.490Z,36.70
2022-11-22T02:06:25.488Z,40.10
2022-11-22T02:07:25.681Z,38.40
2022-11-22T02:08:25.882Z,35.50
2022-11-22T02:09:25.456Z,34.90
2022-11-22T02:10:25.360Z,36.40
2022-11-22T02:11:31.007Z,36.10
2022-11-22T02:12:26.590Z,37.30
2022-11-22T02:13:25.925Z,36.80
2022-11-22T02:14:26.086Z,34.90
2022-11-22T02:15:26.275Z,35.90
2022-11-22T02:16:26.336Z,36.90
2022-11-22T02:17:26.118Z,36.10
2022-11-22T02:18:26.335Z,35.60
2022-11-22T02:19:25.991Z,36.90
2022-11-22T02:20:26.909Z,38.60
2022-11-22T02:21:27.590Z,36.40
2022-11-22T02:22:25.988Z,35.20
2022-11-22T02:23:25.602Z,35.00
2022-11-22T02:24:25.782Z,36.70
2022-11-22T02:25:25.854Z,35.70
2022-11-22T02:26:26.393Z,37.60
2022-11-22T02:27:25.714Z,36.50
2022-11-22T02:28:26.404Z,36.00
2022-11-22T02:29:28.993Z,36.30
2022-11-22T02:30:25.737Z,35.30
2022-11-22T02:31:26.283Z,33.60
2022-11-22T02:32:25.188Z,34.30
2022-11-22T02:33:26.420Z,35.30
2022-11-22T02:34:26.611Z,35.40
2022-11-22T02:35:25.709Z,35.80
2022-11-22T02:36:25.414Z,36.40
2022-11-22T02:37:25.558Z,37.90
2022-11-22T02:38:25.120Z,35.20
2022-11-22T02:39:27.807Z,34.60
2022-11-22T02:40:26.589Z,35.30
2022-11-22T02:41:25.950Z,35.40
2022-11-22T02:42:25.714Z,35.00
2022-11-22T02:43:31.578Z,38.10
2022-11-22T02:44:26.974Z,36.60
2022-11-22T02:45:25.603Z,35.00
2022-11-22T02:46:25.882Z,36.70
2022-11-22T02:47:25.420Z,34.80
2022-11-22T02:48:25.787Z,33.70
2022-11-22T02:49:26.492Z,35.00
2022-11-22T02:50:25.315Z,34.10
2022-11-22T02:51:25.824Z,35.30
2022-11-22T02:52:25.747Z,35.80
2022-11-22T02:53:26.469Z,35.60
2022-11-22T02:54:27.777Z,33.10
2022-11-22T02:55:24.990Z,35.60
2022-11-22T02:56:26.268Z,33.70
2022-11-22T02:57:25.421Z,34.20
2022-11-22T02:58:25.169Z,34.30
2022-11-22T02:59:25.255Z,35.60
2022-11-22T03:00:25.539Z,33.30
2022-11-22T03:01:25.370Z,35.10
2022-11-22T03:02:25.258Z,34.80
2022-11-22T03:03:25.669Z,36.40
2022-11-22T03:04:26.001Z,35.80
2022-11-22T03:05:25.165Z,36.40
2022-11-22T03:06:25.360Z,39.70
2022-11-22T03:07:25.354Z,35.90
2022-11-22T03:08:25.272Z,35.40
2022-11-22T03:09:25.838Z,34.20
2022-11-22T03:10:27.806Z,34.80
2022-11-22T03:11:47.583Z,35.40
2022-11-22T03:12:25.198Z,36.20
2022-11-22T03:13:27.263Z,35.10
2022-11-22T03:14:25.383Z,34.90
2022-11-22T03:15:25.618Z,31.90
2022-11-22T03:16:24.973Z,36.60
2022-11-22T03:17:25.531Z,34.60
2022-11-22T03:18:25.398Z,34.40
2022-11-22T03:19:26.049Z,32.00
2022-11-22T03:20:26.404Z,35.50
2022-11-22T03:21:26.553Z,35.00
2022-11-22T03:25:38.390Z,34.20
2022-11-22T03:26:15.060Z,34.40
2022-11-22T03:27:15.523Z,35.50
2022-11-22T03:28:13.663Z,34.00
2022-11-22T03:29:32.415Z,34.20
2022-11-22T03:30:11.536Z,33.90
2022-11-22T03:31:14.033Z,33.10
2022-11-22T03:32:11.196Z,34.00
2022-11-22T03:33:11.720Z,32.90
2022-11-22T03:34:10.689Z,33.60
2022-11-22T03:35:10.668Z,32.40
2022-11-22T03:36:10.841Z,34.30
2022-11-22T03:37:10.788Z,32.00
2022-11-22T03:38:10.697Z,31.90
2022-11-22T03:39:10.726Z,34.50
2022-11-22T03:40:14.385Z,30.80
2022-11-22T03:41:11.001Z,30.20
2022-11-22T03:42:10.733Z,31.10
2022-11-22T03:43:10.608Z,31.70
2022-11-22T03:44:11.706Z,30.30
2022-11-22T03:45:22.604Z,33.30
2022-11-22T03:46:11.650Z,32.00
2022-11-22T03:47:12.729Z,33.70
2022-11-22T03:48:32.872Z,34.60
2022-11-22T03:49:12.074Z,33.40
2022-11-22T03:50:13.884Z,32.40
2022-11-22T03:51:11.048Z,32.30
2022-11-22T03:52:10.942Z,35.40
2022-11-22T03:53:12.214Z,35.20
2022-11-22T03:54:14.546Z,30.30
2022-11-22T03:55:14.811Z,32.00
2022-11-22T03:56:10.581Z,34.30
2022-11-22T03:57:11.484Z,33.20
2022-11-22T03:58:11.885Z,31.60
2022-11-22T04:00:20.606Z,33.10
2022-11-22T04:01:16.123Z,32.50
2022-11-22T04:02:13.923Z,32.00
2022-11-22T04:03:14.192Z,31.40
2022-11-22T04:04:10.827Z,36.60
2022-11-22T04:05:12.195Z,33.70
2022-11-22T04:06:12.515Z,34.70
2022-11-22T04:07:10.612Z,33.70
2022-11-22T04:08:10.736Z,33.00
2022-11-22T04:09:11.983Z,35.20
2022-11-22T04:11:12.045Z,31.60
2022-11-22T04:12:16.447Z,34.70
2022-11-22T04:13:11.261Z,32.90
2022-11-22T04:14:11.441Z,31.70
2022-11-22T04:15:10.986Z,34.10
2022-11-22T04:16:10.962Z,33.60
2022-11-22T04:17:11.924Z,36.80
2022-11-22T04:18:11.170Z,34.00
2022-11-22T04:19:10.854Z,31.90
2022-11-22T04:20:11.015Z,33.40
2022-11-22T04:21:11.918Z,36.80
2022-11-22T04:22:11.381Z,32.70
2022-11-22T04:23:30.708Z,31.40
2022-11-22T04:24:12.352Z,34.60
2022-11-22T04:25:10.854Z,33.60
2022-11-22T04:26:11.362Z,34.40
2022-11-22T04:27:10.605Z,33.60
2022-11-22T04:28:11.614Z,35.20
2022-11-22T04:29:10.947Z,35.90
2022-11-22T04:30:14.775Z,33.00
2022-11-22T04:31:11.299Z,30.90
2022-11-22T04:32:10.395Z,31.40
2022-11-22T04:33:11.612Z,32.20
2022-11-22T04:34:10.605Z,33.40
2022-11-22T04:35:11.478Z,31.50
2022-11-22T04:36:13.700Z,30.70
2022-11-22T04:37:10.994Z,31.70
2022-11-22T04:38:10.124Z,29.60
2022-11-22T04:39:10.595Z,31.70
2022-11-22T04:40:12.324Z,34.20
2022-11-22T04:41:10.113Z,30.40
2022-11-22T04:42:10.131Z,32.90
2022-11-22T04:43:10.414Z,33.50
2022-11-22T04:44:10.254Z,33.30
2022-11-22T04:45:11.775Z,31.40
2022-11-22T04:46:10.346Z,32.80
2022-11-22T04:47:11.077Z,30.60
2022-11-22T04:48:11.291Z,29.80
2022-11-22T04:49:10.065Z,32.30
2022-11-22T04:50:11.514Z,30.20
2022-11-22T04:51:11.787Z,29.80
2022-11-22T04:52:10.582Z,31.50
2022-11-22T04:53:10.388Z,31.20
2022-11-22T04:54:10.248Z,33.00
2022-11-22T04:55:12.102Z,33.00
2022-11-22T04:56:13.964Z,31.90
2022-11-22T04:57:10.347Z,32.40
2022-11-22T04:58:10.799Z,34.10
2022-11-22T04:59:10.787Z,32.90
2022-11-22T05:00:10.470Z,34.00
2022-11-22T05:01:10.589Z,31.00
2022-11-22T05:02:10.120Z,33.00
2022-11-22T05:03:10.256Z,34.50
2022-11-22T05:04:11.398Z,33.90
2022-11-22T05:05:10.027Z,34.90
2022-11-22T05:06:09.970Z,31.80
2022-11-22T05:07:10.791Z,31.50
2022-11-22T05:08:09.896Z,33.00
2022-11-22T05:09:10.567Z,33.40
2022-11-22T05:10:10.296Z,31.50
2022-11-22T05:11:09.759Z,32.40
2022-11-22T05:12:10.082Z,32.10
2022-11-22T05:13:14.249Z,33.30
2022-11-22T05:14:36.215Z,33.40
2022-11-22T05:15:12.492Z,31.90
2022-11-22T05:16:10.085Z,32.40
2022-11-22T05:18:32.666Z,32.10
2022-11-22T05:19:09.623Z,32.20
2022-11-22T05:20:09.927Z,37.50
2022-11-22T05:21:09.853Z,34.10
2022-11-22T05:22:11.021Z,33.20
2022-11-22T05:23:09.638Z,33.00
2022-11-22T05:24:10.080Z,35.40
2022-11-22T05:25:10.360Z,33.80
2022-11-22T05:26:09.914Z,31.30
2022-11-22T05:27:10.067Z,33.30
2022-11-22T05:28:09.918Z,33.10
2022-11-22T05:29:09.611Z,36.60
2022-11-22T05:30:10.268Z,33.10
2022-11-22T05:31:10.587Z,35.20
2022-11-22T05:32:09.598Z,31.90
2022-11-22T05:33:12.827Z,31.30
2022-11-22T05:34:09.793Z,32.50
2022-11-22T05:35:10.507Z,33.80
2022-11-22T05:36:10.727Z,32.30
2022-11-22T05:37:12.963Z,32.00
2022-11-22T05:38:09.934Z,33.80
2022-11-22T05:39:15.003Z,32.30
2022-11-22T05:40:10.572Z,31.50
2022-11-22T05:41:09.821Z,33.40
2022-11-22T05:42:10.217Z,32.40
2022-11-22T05:43:09.582Z,33.30
2022-11-22T05:44:11.081Z,32.20
2022-11-22T05:45:10.121Z,32.90
2022-11-22T05:46:09.367Z,37.30
2022-11-22T05:47:09.656Z,32.30
2022-11-22T05:48:09.395Z,33.70
2022-11-22T05:49:09.679Z,34.10
2022-11-22T05:50:10.102Z,32.80
2022-11-22T05:51:09.027Z,36.90
2022-11-22T05:52:13.079Z,37.40
2022-11-22T05:53:11.715Z,37.60
2022-11-22T05:54:09.949Z,36.00
2022-11-22T05:55:09.120Z,37.10
2022-11-22T05:56:10.520Z,37.10
2022-11-22T05:57:09.473Z,35.70
2022-11-22T05:58:10.012Z,35.90
2022-11-22T05:59:09.552Z,38.90
2022-11-22T06:00:09.524Z,36.60
2022-11-22T06:01:10.279Z,42.30
2022-11-22T06:02:09.093Z,39.90
2022-11-22T06:03:09.365Z,36.20
2022-11-22T06:04:16.036Z,37.80
2022-11-22T06:05:09.786Z,44.00
2022-11-22T06:06:09.520Z,40.90
2022-11-22T06:07:10.421Z,38.70
2022-11-22T06:08:09.664Z,38.10
2022-11-22T06:09:10.052Z,34.10
2022-11-22T06:10:09.757Z,37.30
2022-11-22T06:11:09.093Z,38.40
2022-11-22T06:12:12.217Z,38.50
2022-11-22T06:13:09.500Z,40.50
2022-11-22T06:14:13.652Z,40.10
2022-11-22T06:15:10.802Z,41.20
2022-11-22T06:16:10.195Z,37.20
2022-11-22T06:17:09.058Z,41.10
2022-11-22T06:18:09.436Z,36.30
2022-11-22T06:19:10.456Z,38.60
2022-11-22T06:20:10.629Z,37.90
2022-11-22T06:21:10.746Z,39.00
2022-11-22T06:22:09.348Z,40.20
2022-11-22T06:23:10.210Z,41.00
2022-11-22T06:24:09.706Z,44.20
2022-11-22T06:25:09.747Z,45.30
2022-11-22T06:26:08.762Z,46.00
2022-11-22T06:27:12.698Z,44.60
2022-11-22T06:28:09.138Z,45.80
2022-11-22T06:29:08.956Z,45.90
2022-11-22T06:30:09.265Z,42.00
2022-11-22T06:31:09.844Z,47.00
2022-11-22T06:32:08.260Z,48.00
2022-11-22T06:33:08.358Z,62.10
2022-11-22T06:34:08.459Z,54.80
2022-11-22T06:35:10.139Z,65.80
2022-11-22T06:52:49.672Z,74.80
2022-11-22T06:53:49.849Z,80.30
2022-11-22T06:54:49.879Z,83.70
2022-11-22T06:55:51.333Z,82.60
2022-11-22T06:56:49.583Z,68.40
2022-11-22T06:57:49.886Z,73.20
2022-11-22T06:58:49.593Z,90.10
2022-11-22T06:59:50.430Z,61.70
2022-11-22T07:00:49.658Z,89.20
2022-11-22T07:01:49.645Z,71.80
2022-11-22T07:02:49.619Z,96.80
2022-11-22T07:03:49.619Z,88.30
2022-11-22T07:05:17.154Z,80.90
2022-11-22T07:05:50.496Z,94.80
2022-11-22T07:06:49.541Z,76.20
2022-11-22T07:07:49.631Z,87.60
2022-11-22T07:08:49.372Z,81.50
2022-11-22T07:09:54.961Z,107.40
2022-11-22T07:10:50.318Z,78.00
2022-11-22T07:11:50.097Z,85.30
2022-11-22T07:12:49.611Z,89.80
2022-11-22T07:13:49.392Z,75.10
2022-11-22T07:14:49.392Z,78.70
2022-11-22T07:15:50.126Z,105.40
2022-11-22T07:16:50.032Z,86.70
2022-11-22T07:17:49.662Z,77.60
2022-11-22T07:18:49.335Z,98.50
2022-11-22T07:19:50.875Z,85.70
2022-11-22T07:20:49.268Z,104.10
2022-11-22T07:21:50.290Z,92.30
2022-11-22T07:22:51.285Z,72.50
2022-11-22T07:23:57.220Z,79.80
2022-11-22T07:25:00.546Z,75.60
2022-11-22T07:26:03.316Z,85.00
2022-11-22T07:26:49.186Z,93.10
2022-11-22T07:27:49.331Z,83.90
2022-11-22T07:28:50.569Z,75.20
2022-11-22T07:29:49.308Z,69.60
2022-11-22T07:30:49.243Z,83.20
2022-11-22T07:31:49.121Z,93.90
2022-11-22T07:32:49.430Z,80.30
2022-11-22T07:33:49.335Z,79.80
2022-11-22T07:34:49.649Z,84.40
2022-11-22T07:35:49.351Z,99.20
2022-11-22T07:36:51.981Z,90.60
2022-11-22T07:37:50.172Z,86.30
2022-11-22T07:38:49.194Z,85.20
2022-11-22T07:39:49.012Z,83.60
2022-11-22T07:40:49.174Z,90.40
2022-11-22T07:41:49.096Z,82.40
2022-11-22T07:42:48.989Z,73.80
2022-11-22T07:43:48.944Z,89.00
2022-11-22T07:44:49.113Z,85.10
2022-11-22T07:45:48.939Z,80.80
2022-11-22T07:46:50.168Z,84.50
2022-11-22T07:47:48.921Z,90.20
2022-11-22T07:48:49.146Z,99.70
2022-11-22T07:49:48.842Z,75.60
2022-11-22T07:50:49.046Z,91.20
2022-11-22T07:51:48.869Z,106.00
2022-11-22T07:52:48.864Z,92.90
2022-11-22T07:53:48.964Z,90.50
2022-11-22T07:54:48.876Z,71.80
2022-11-22T07:55:48.969Z,79.60
2022-11-22T07:56:48.985Z,89.70
2022-11-22T07:57:48.893Z,84.50
2022-11-22T07:58:48.916Z,84.40
2022-11-22T07:59:48.811Z,82.20
2022-11-22T08:00:48.812Z,85.10
2022-11-22T08:01:49.099Z,84.30
2022-11-22T08:02:48.718Z,76.10
2022-11-22T08:03:48.756Z,75.10
2022-11-22T08:04:48.739Z,96.10
2022-11-22T08:05:48.746Z,80.60
2022-11-22T08:06:48.916Z,68.50
2022-11-22T08:07:48.706Z,78.60
2022-11-22T08:08:48.745Z,72.50
2022-11-22T08:09:48.762Z,72.10
2022-11-22T08:10:48.686Z,83.20
2022-11-22T08:11:48.848Z,69.30
2022-11-22T08:12:48.688Z,75.70
2022-11-22T08:13:48.690Z,72.10
2022-11-22T08:14:48.722Z,70.70
2022-11-22T08:15:48.517Z,88.60
2022-11-22T08:18:26.609Z,81.90
2022-11-22T08:19:00.192Z,79.10
2022-11-22T08:20:01.118Z,69.30
2022-11-22T08:21:00.129Z,68.90
2022-11-22T08:22:00.322Z,73.90
2022-11-22T08:23:00.134Z,66.30
2022-11-22T08:24:01.145Z,77.50
2022-11-22T08:25:00.652Z,71.20
2022-11-22T08:26:02.917Z,64.80
2022-11-22T08:27:00.134Z,77.20
2022-11-22T08:27:59.964Z,83.40
2022-11-22T08:29:00.164Z,79.20
2022-11-22T08:30:00.207Z,68.20
2022-11-22T08:31:00.013Z,80.60
2022-11-22T08:32:00.080Z,76.90
2022-11-22T08:33:00.228Z,71.10
2022-11-22T08:34:01.729Z,71.30
2022-11-22T08:35:01.788Z,60.50
2022-11-22T08:36:01.777Z,73.20
2022-11-22T08:37:07.788Z,76.60
2022-11-22T08:38:01.812Z,69.80
2022-11-22T08:39:04.364Z,56.50
2022-11-22T08:40:08.374Z,71.90
2022-11-22T08:41:01.057Z,64.30
2022-11-22T08:42:00.702Z,68.60
2022-11-22T08:43:00.163Z,56.50
2022-11-22T08:44:02.561Z,60.70
2022-11-22T08:45:00.048Z,62.40
2022-11-22T08:46:05.908Z,63.30
2022-11-22T08:47:02.028Z,73.70
2022-11-22T08:48:01.010Z,68.80
2022-11-22T08:49:00.801Z,69.10
2022-11-22T08:50:01.768Z,69.50
2022-11-22T08:51:13.509Z,77.80
2022-11-22T08:52:00.651Z,74.50
2022-11-22T08:53:08.195Z,56.50
2022-11-22T08:54:02.460Z,59.50
2022-11-22T09:18:20.889Z,76.20
2022-11-22T09:18:59.022Z,74.30
2022-11-22T09:20:10.951Z,77.30
2022-11-22T09:21:03.272Z,82.70
2022-11-22T09:22:28.563Z,75.80
2022-11-22T09:23:05.366Z,68.20
2022-11-22T09:23:58.627Z,89.80
2022-11-22T09:24:58.855Z,77.30
2022-11-22T09:26:07.963Z,82.50
2022-11-22T09:27:06.254Z,83.40
2022-11-22T09:28:03.525Z,79.90
2022-11-22T09:29:06.995Z,82.00
2022-11-22T09:30:10.208Z,69.40
2022-11-22T09:31:17.090Z,72.50
2022-11-22T09:32:07.424Z,76.70
2022-11-22T09:33:11.747Z,67.40
2022-11-22T09:34:19.586Z,78.90
2022-11-22T09:35:27.393Z,75.40
2022-11-22T09:36:10.181Z,80.20
2022-11-22T09:37:08.882Z,80.10
2022-11-22T09:38:14.703Z,74.10
2022-11-22T09:39:12.014Z,78.60
2022-11-22T09:40:12.143Z,95.40
2022-11-22T09:41:01.262Z,87.00
2022-11-22T09:42:07.338Z,75.90
2022-11-22T09:43:08.603Z,89.30
2022-11-22T09:44:04.417Z,82.40
2022-11-22T09:45:01.627Z,92.30
2022-11-22T09:46:02.671Z,77.30
2022-11-22T09:47:01.209Z,77.80
2022-11-22T09:48:08.224Z,74.20
2022-11-22T09:49:03.624Z,74.90
2022-11-22T09:49:59.454Z,85.40
2022-11-22T09:51:01.804Z,84.70
2022-11-22T09:51:59.810Z,70.00
2022-11-22T09:53:06.818Z,93.70
2022-11-22T09:54:05.532Z,93.80
2022-11-22T09:55:04.457Z,99.60
2022-11-22T09:56:04.709Z,94.10
2022-11-22T09:57:03.885Z,128.50
2022-11-22T09:58:27.557Z,97.70
2022-11-22T09:59:01.866Z,87.60
2022-11-22T10:00:07.114Z,93.80
2022-11-22T10:01:27.852Z,91.60
2022-11-22T10:01:58.717Z,117.50
2022-11-22T10:03:00.603Z,106.70
2022-11-22T10:03:56.971Z,100.80
2022-11-22T10:04:57.148Z,98.80
2022-11-22T10:05:57.181Z,99.10
2022-11-22T10:06:56.979Z,104.80
2022-11-22T10:07:57.248Z,104.10
2022-11-22T10:08:57.082Z,121.20
2022-11-22T10:09:57.199Z,118.40
2022-11-22T10:10:57.119Z,99.80
2022-11-22T10:11:57.007Z,101.50
2022-11-22T10:12:57.131Z,118.70
2022-11-22T10:13:59.493Z,107.50
2022-11-22T10:14:56.947Z,108.00
2022-11-22T10:15:56.839Z,117.00
2022-11-22T10:16:58.058Z,101.80
2022-11-22T10:17:57.679Z,99.00
2022-11-22T10:18:57.477Z,119.20
2022-11-22T10:19:57.810Z,103.90
2022-11-22T10:20:56.969Z,98.90
2022-11-22T10:21:57.590Z,104.00
2022-11-22T10:22:56.894Z,98.80
2022-11-22T10:23:57.391Z,101.50
2022-11-22T10:24:57.617Z,102.30
2022-11-22T10:25:56.702Z,102.80
2022-11-22T10:26:56.716Z,92.00
2022-11-22T10:28:00.786Z,95.80
2022-11-22T10:28:56.742Z,107.70
2022-11-22T10:29:56.724Z,104.50
2022-11-22T10:30:56.939Z,98.40
2022-11-22T10:31:57.849Z,114.80
2022-11-22T10:32:56.749Z,99.70
2022-11-22T10:34:01.600Z,118.20
2022-11-22T10:35:05.058Z,107.10
2022-11-22T10:35:56.884Z,124.30
2022-11-22T10:36:57.428Z,111.60
2022-11-22T10:37:56.982Z,111.30
2022-11-22T10:38:58.011Z,116.30
2022-11-22T10:39:56.913Z,102.20
2022-11-22T11:09:23.304Z,132.50
2022-11-22T11:10:09.048Z,134.40
2022-11-22T11:10:33.750Z,108.40
2022-11-22T11:11:27.439Z,105.90
2022-11-22T13:38:36.354Z,69.80
2022-11-22T13:39:08.830Z,67.20
2022-11-22T13:40:08.094Z,65.70
2022-11-22T13:41:08.114Z,60.10
2022-11-22T13:42:08.427Z,66.30
2022-11-22T13:43:13.089Z,56.40
2022-11-22T13:44:09.186Z,56.80
2022-11-22T13:45:08.158Z,56.40
2022-11-22T13:46:08.447Z,52.30
2022-11-22T13:47:08.170Z,60.90
2022-11-22T13:48:08.367Z,62.20
2022-11-22T13:49:08.188Z,60.90
2022-11-22T13:50:08.082Z,55.20
2022-11-22T13:51:07.995Z,57.50
2022-11-22T13:52:08.425Z,54.30
2022-11-22T13:53:08.129Z,49.10
2022-11-22T13:54:08.253Z,60.00
2022-11-22T13:55:12.434Z,73.70
2022-11-22T13:56:09.057Z,86.40
2022-11-22T13:57:09.956Z,62.00
2022-11-22T13:58:07.842Z,60.20
2022-11-22T13:59:08.872Z,48.10
2022-11-22T14:00:08.543Z,56.80
2022-11-22T14:01:07.921Z,57.80
2022-11-22T14:02:07.986Z,57.70
2022-11-22T14:03:08.191Z,68.10
2022-11-22T14:04:08.179Z,59.70
2022-11-22T14:05:07.890Z,56.20
2022-11-22T14:06:08.113Z,57.00
2022-11-22T14:07:07.955Z,55.00
2022-11-22T14:08:07.814Z,68.60
2022-11-22T14:09:07.728Z,54.40
2022-11-22T14:10:08.216Z,51.50
2022-11-22T14:11:07.730Z,53.30
2022-11-22T14:12:15.373Z,62.80
2022-11-22T14:13:07.933Z,72.30
2022-11-22T14:14:07.982Z,50.80
2022-11-22T14:15:08.795Z,63.10
2022-11-22T14:16:07.754Z,47.40
2022-11-22T14:17:07.647Z,52.20
2022-11-22T14:18:08.494Z,55.90
2022-11-22T14:19:07.702Z,50.70
2022-11-22T14:20:07.878Z,57.40
2022-11-22T14:21:07.695Z,52.50
2022-11-22T14:22:12.089Z,51.00
2022-11-22T14:23:45.098Z,63.00
2022-11-22T14:24:31.300Z,49.50
2022-11-22T14:25:18.031Z,52.50
2022-11-22T14:26:08.659Z,52.20
2022-11-22T14:27:07.442Z,49.50
2022-11-22T14:28:07.731Z,50.10
2022-11-22T14:29:07.530Z,57.30
2022-11-22T14:30:07.551Z,53.20
2022-11-22T14:31:07.555Z,46.60
2022-11-22T14:32:07.873Z,45.80
2022-11-22T14:33:07.554Z,54.80
2022-11-22T14:34:07.563Z,62.10
2022-11-22T14:35:07.382Z,45.70
2022-11-22T14:36:07.603Z,50.80
2022-11-22T14:37:07.496Z,52.70
2022-11-22T14:38:07.893Z,67.90
2022-11-22T14:39:07.320Z,57.30
2022-11-22T14:40:07.433Z,48.10
2022-11-22T14:41:07.530Z,54.70
2022-11-22T14:42:07.649Z,54.20
2022-11-22T14:43:09.902Z,56.90
2022-11-22T14:44:07.352Z,53.00
2022-11-22T14:45:07.452Z,54.80
2022-11-22T14:46:24.350Z,65.20
2022-11-22T14:47:08.510Z,54.50
2022-11-22T14:48:07.375Z,50.40
2022-11-22T14:49:07.389Z,52.30
2022-11-22T14:50:07.098Z,51.90
2022-11-22T14:51:07.304Z,63.00
2022-11-22T14:52:07.716Z,63.70
2022-11-22T14:53:07.182Z,52.20
2022-11-22T14:54:07.800Z,53.10
2022-11-22T14:55:28.478Z,59.20
2022-11-22T14:56:26.568Z,56.10
2022-11-22T14:57:22.402Z,55.20
2022-11-22T14:58:20.389Z,63.40
2022-11-22T14:59:12.316Z,58.50
2022-11-22T15:59:07.648Z,51.30
2022-11-22T15:59:57.075Z,54.10
2022-11-22T16:01:01.686Z,47.60
2022-11-22T16:01:57.926Z,53.80
2022-11-22T16:03:20.136Z,53.80
2022-11-22T16:04:06.866Z,51.20
2022-11-22T16:06:07.663Z,52.20
2022-11-22T16:06:23.211Z,53.10
2022-11-22T16:07:25.619Z,53.00
2022-11-22T16:08:10.928Z,52.70
2022-11-22T16:09:03.315Z,71.90
2022-11-22T16:18:48.882Z,70.40
2022-11-22T16:19:43.661Z,67.80
2022-11-22T16:20:43.122Z,63.30
2022-11-22T16:21:43.169Z,62.90
2022-11-22T16:24:17.382Z,78.70
2022-11-22T16:25:11.344Z,76.70
2022-11-22T16:26:11.233Z,77.00
2022-11-22T16:27:11.362Z,89.20
2022-11-22T16:28:11.253Z,68.30
2022-11-22T16:29:11.451Z,65.20
2022-11-22T16:30:12.107Z,69.60
2022-11-22T16:31:11.279Z,72.20
2022-11-22T16:32:11.383Z,69.50
2022-11-22T16:33:11.490Z,66.20
2022-11-22T16:34:12.221Z,56.60
2022-11-22T16:35:28.617Z,63.70
2022-11-22T16:36:12.445Z,70.00
2022-11-22T16:37:11.416Z,73.60
2022-11-22T16:38:11.394Z,62.30
2022-11-22T16:39:13.614Z,63.80
2022-11-22T16:40:11.229Z,60.10
2022-11-22T16:41:11.133Z,62.10
2022-11-22T16:42:11.259Z,66.90
2022-11-22T16:43:11.149Z,65.60
2022-11-22T16:44:11.569Z,75.90
2022-11-22T16:45:11.508Z,77.80
2022-11-22T16:46:12.300Z,81.00
2022-11-22T16:47:12.241Z,65.70
2022-11-22T16:48:30.801Z,75.50
2022-11-22T16:49:12.114Z,86.30
2022-11-22T16:50:11.209Z,86.70
2022-11-22T16:51:10.906Z,79.60
2022-11-22T16:52:11.330Z,97.00
2022-11-22T16:53:11.522Z,74.40
2022-11-22T16:54:11.123Z,86.70
2022-11-22T16:55:11.248Z,101.70
2022-11-22T16:56:11.243Z,81.20
2022-11-22T16:57:11.272Z,78.30
2022-11-22T16:58:11.186Z,105.20
2022-11-22T16:59:12.563Z,72.90
2022-11-22T17:00:11.062Z,92.30
2022-11-22T17:01:11.623Z,91.00
2022-11-22T17:02:11.094Z,83.20
2022-11-22T17:03:12.034Z,76.70
2022-11-22T17:04:11.944Z,83.60
2022-11-22T17:05:14.190Z,91.20
2022-11-22T17:06:10.806Z,81.10
2022-11-22T17:07:11.044Z,89.00
2022-11-22T17:08:11.510Z,105.60
2022-11-22T17:09:11.248Z,104.70
2022-11-22T17:10:11.353Z,96.90
2022-11-22T17:11:11.059Z,89.40
2022-11-22T17:12:10.873Z,97.60
2022-11-22T17:13:10.875Z,95.60
2022-11-22T17:14:10.942Z,99.80
2022-11-22T17:15:10.851Z,116.20
2022-11-22T17:16:15.174Z,88.10
2022-11-22T17:17:10.674Z,97.90
2022-11-22T17:18:10.712Z,109.80
2022-11-22T17:19:24.214Z,100.80
2022-11-22T17:20:11.601Z,96.40
2022-11-22T17:21:10.711Z,119.50
2022-11-22T17:22:10.617Z,130.50
2022-11-22T17:23:10.713Z,98.10
2022-11-22T17:24:10.539Z,124.20
2022-11-22T17:25:10.537Z,106.50
2022-11-22T17:26:10.614Z,114.50
2022-11-22T17:27:11.154Z,122.30
2022-11-22T17:28:13.716Z,100.40
2022-11-22T17:29:29.024Z,106.80
2022-11-22T17:30:11.484Z,126.70
2022-11-22T17:31:10.669Z,143.70
2022-11-22T17:32:12.622Z,112.20
2022-11-22T17:33:10.678Z,139.30
2022-11-22T17:34:10.600Z,89.80
2022-11-22T17:35:10.515Z,111.60
2022-11-22T17:36:11.521Z,114.80
2022-11-22T17:37:10.616Z,119.20
2022-11-22T17:38:10.519Z,89.10
2022-11-22T17:39:10.641Z,98.50
2022-11-22T17:40:10.414Z,111.50
2022-11-22T17:41:10.535Z,110.10
2022-11-22T17:42:10.632Z,118.40
2022-11-22T17:43:10.432Z,118.90
2022-11-22T17:44:10.480Z,109.30
2022-11-22T17:45:10.468Z,117.30